Time;durP1;ratioP1;P1;durP2;ratioP2;P2;SDS_P1;SDS_P2;PMS_P1;PMS_P2;Temp;Humidity;BMP_temperature;BMP_pressure;BME280_temperature;BME280_humidity;BME280_pressure;Samples;Min_cycle;Max_cycle;Signal;HPM_P1;HPM_P2
2023/07/07 00:00:57;;;;;;;;;15.60;13.80;;;;;22.43;51.67;99398.91;4912582;29;8986;-73
2023/07/07 00:03:45;;;;;;;;;14.00;11.20;;;;;22.34;51.69;99404.94;4911950;29;8902;-73
2023/07/07 00:06:14;;;;;;;;;10.80;10.80;;;;;22.38;51.47;99404.59;4912570;29;8883;-74
2023/07/07 00:08:43;;;;;;;;;11.00;11.00;;;;;22.39;51.50;99411.66;4911732;29;8867;-73
2023/07/07 00:11:11;;;;;;;;;10.60;9.60;;;;;22.02;52.61;99408.91;4909728;29;8987;-75
2023/07/07 00:13:40;;;;;;;;;8.60;7.80;;;;;22.27;51.88;99409.03;4910086;29;8964;-73
2023/07/07 00:16:10;;;;;;;;;11.00;11.00;;;;;22.37;51.83;99410.94;4894004;29;8888;-73
2023/07/07 00:18:39;;;;;;;;;12.60;12.60;;;;;22.44;51.28;99414.00;4910051;29;8873;-74
2023/07/07 00:21:08;;;;;;;;;10.40;10.40;;;;;22.53;50.83;99417.84;4909834;29;9025;-73
2023/07/07 00:23:38;;;;;;;;;9.40;8.60;;;;;22.53;50.76;99410.66;4908708;29;8984;-74
2023/07/07 00:26:09;;;;;;;;;9.00;7.40;;;;;22.56;50.48;99407.75;4909777;29;8865;-73
2023/07/07 00:28:38;;;;;;;;;11.20;10.60;;;;;22.62;50.36;99409.13;4910112;29;8952;-73
2023/07/07 00:31:06;;;;;;;;;9.00;9.00;;;;;22.60;50.51;99406.56;4909686;29;8896;-74
2023/07/07 00:33:37;;;;;;;;;11.00;8.80;;;;;22.64;50.14;99399.16;4909658;29;9658;-73
2023/07/07 00:36:06;;;;;;;;;8.60;8.60;;;;;22.55;50.03;99408.72;4893848;29;8873;-73
2023/07/07 00:38:35;;;;;;;;;7.00;7.00;;;;;22.32;50.57;99410.41;4862198;29;8888;-74
2023/07/07 00:41:05;;;;;;;;;9.60;9.40;;;;;22.39;50.35;99406.31;4909459;29;8884;-73
2023/07/07 00:43:36;;;;;;;;;9.20;8.40;;;;;22.41;50.12;99401.69;4922756;29;8858;-75
2023/07/07 00:46:06;;;;;;;;;7.40;7.40;;;;;22.41;50.17;99403.50;4893201;29;8862;-73
2023/07/07 00:48:39;;;;;;;;;10.80;10.40;;;;;22.48;50.03;99410.13;4893485;29;8881;-73
2023/07/07 00:51:13;;;;;;;;;9.60;9.60;;;;;22.52;49.92;99413.44;4894803;29;8877;-74
2023/07/07 00:53:46;;;;;;;;;8.20;8.20;;;;;22.37;50.10;99420.75;4914187;29;8885;-76
2023/07/07 00:56:22;;;;;;;;;11.80;10.60;;;;;22.44;49.98;99424.72;4931972;29;8927;-74
2023/07/07 00:58:52;;;;;;;;;7.80;6.60;;;;;22.41;50.10;99419.56;4918497;29;8897;-75
2023/07/07 01:01:20;;;;;;;;;10.00;8.80;;;;;22.43;49.79;99406.94;4932822;29;8875;-75
2023/07/07 01:03:55;;;;;;;;;9.00;9.00;;;;;22.51;49.85;99417.09;4901401;29;8871;-74
2023/07/07 01:06:27;;;;;;;;;8.20;7.20;;;;;22.36;50.08;99417.25;4917181;29;8895;-76
2023/07/07 01:09:00;;;;;;;;;9.00;8.00;;;;;22.38;50.12;99422.50;4918572;29;9683;-73
2023/07/07 01:11:30;;;;;;;;;11.60;9.40;;;;;22.37;49.92;99434.16;4932468;29;8905;-74
2023/07/07 01:14:02;;;;;;;;;11.60;9.80;;;;;22.33;50.04;99433.53;4937866;29;8875;-76
2023/07/07 01:16:40;;;;;;;;;10.00;9.00;;;;;22.46;49.45;99444.22;4933740;29;8863;-73
2023/07/07 01:19:29;;;;;;;;;7.20;7.20;;;;;22.51;49.56;99450.09;4919208;29;8876;-74
2023/07/07 01:22:20;;;;;;;;;6.20;6.20;;;;;22.52;49.69;99443.75;4915836;29;8883;-76
2023/07/07 01:25:05;;;;;;;;;10.00;10.00;;;;;22.57;49.43;99433.56;4918256;29;8887;-75
2023/07/07 01:28:07;;;;;;;;;7.40;7.40;;;;;22.64;49.52;99425.97;4915905;29;8881;-75
2023/07/07 01:30:46;;;;;;;;;9.20;7.60;;;;;22.65;49.51;99426.81;4859745;29;8883;-76
2023/07/07 01:33:18;;;;;;;;;11.20;9.00;;;;;22.59;49.43;99431.63;4859349;29;8883;-77
2023/07/07 01:35:46;;;;;;;;;9.00;9.00;;;;;22.60;49.37;99428.00;4859264;29;8867;-75
2023/07/07 01:38:34;;;;;;;;;9.60;9.60;;;;;22.74;48.77;99429.66;4859364;29;8997;-76
2023/07/07 01:41:16;;;;;;;;;10.00;9.40;;;;;22.64;49.41;99425.06;4857973;29;8984;-74
2023/07/07 01:43:51;;;;;;;;;9.80;8.60;;;;;22.59;49.38;99420.91;4859246;29;9657;-74
2023/07/07 01:46:29;;;;;;;;;8.40;8.40;;;;;22.65;49.28;99416.94;4859389;29;8905;-74
2023/07/07 01:49:06;;;;;;;;;10.00;10.00;;;;;22.63;49.55;99423.38;4843644;29;8906;-75
2023/07/07 01:51:44;;;;;;;;;9.20;9.20;;;;;22.65;49.38;99416.09;4859213;29;8883;-75
2023/07/07 01:54:14;;;;;;;;;9.00;8.80;;;;;22.58;49.55;99405.81;4859244;29;8868;-74
2023/07/07 01:56:47;;;;;;;;;9.20;8.20;;;;;22.57;49.44;99404.09;4861247;29;9033;-74
2023/07/07 01:59:17;;;;;;;;;9.60;8.80;;;;;22.52;49.70;99403.56;4860389;29;8899;-74
2023/07/07 02:01:48;;;;;;;;;7.80;7.40;;;;;22.45;50.03;99398.78;4858902;29;8875;-73
2023/07/07 02:04:17;;;;;;;;;9.80;9.80;;;;;22.44;50.01;99402.44;4856162;29;8895;-75
2023/07/07 02:06:46;;;;;;;;;11.00;10.00;;;;;22.40;50.19;99401.81;4860421;29;9645;-76
2023/07/07 02:09:14;;;;;;;;;9.60;8.60;;;;;22.41;50.27;99400.81;4911454;29;8886;-75
2023/07/07 02:11:43;;;;;;;;;8.20;8.20;;;;;22.36;50.40;99398.50;4895617;29;8909;-73
2023/07/07 02:14:12;;;;;;;;;9.20;8.60;;;;;22.36;50.36;99394.97;4914663;29;8966;-73
2023/07/07 02:16:41;;;;;;;;;11.00;11.00;;;;;22.34;50.54;99391.56;4928992;29;8897;-74
2023/07/07 02:19:12;;;;;;;;;11.40;10.80;;;;;22.34;50.60;99387.03;4897180;29;8963;-73
2023/07/07 02:21:41;;;;;;;;;13.40;10.80;;;;;22.34;50.56;99378.16;4929180;29;8867;-78
2023/07/07 02:24:10;;;;;;;;;8.00;7.40;;;;;22.22;51.08;99395.91;4914400;29;8917;-74
2023/07/07 02:26:41;;;;;;;;;5.80;5.80;;;;;22.23;51.16;99394.97;4914615;29;8871;-75
2023/07/07 02:29:11;;;;;;;;;12.60;11.60;;;;;22.18;51.24;99398.00;4912449;29;8902;-77
2023/07/07 02:31:40;;;;;;;;;10.20;10.20;;;;;22.12;51.30;99400.22;4911844;29;8998;-74
2023/07/07 02:34:10;;;;;;;;;10.20;10.20;;;;;22.14;51.72;99400.97;4928765;29;8887;-74
2023/07/07 02:36:39;;;;;;;;;7.00;6.60;;;;;22.15;51.21;99406.22;4929120;29;8864;-77
2023/07/07 02:39:08;;;;;;;;;10.40;10.40;;;;;22.15;51.49;99402.69;4914039;29;8902;-74
2023/07/07 02:41:37;;;;;;;;;10.80;10.80;;;;;22.08;51.79;99396.06;4912592;29;8879;-74
2023/07/07 02:44:05;;;;;;;;;9.20;8.20;;;;;22.07;51.95;99392.53;4912706;29;9655;-75
2023/07/07 02:46:34;;;;;;;;;10.60;10.60;;;;;22.07;51.61;99405.06;4912026;29;8847;-74
2023/07/07 02:49:03;;;;;;;;;8.60;8.60;;;;;22.02;51.87;99406.25;4914023;29;8891;-76
2023/07/07 02:51:34;;;;;;;;;11.40;9.20;;;;;22.03;51.96;99415.13;4914218;29;8856;-75
2023/07/07 02:54:02;;;;;;;;;10.80;10.80;;;;;22.06;52.10;99411.38;4913989;29;9688;-77
2023/07/07 02:56:32;;;;;;;;;11.40;9.80;;;;;22.08;52.14;99412.97;4912830;29;8867;-76
2023/07/07 02:59:01;;;;;;;;;11.80;11.00;;;;;21.83;52.72;99421.91;4928064;29;9590;-75
2023/07/07 03:01:32;;;;;;;;;10.20;9.00;;;;;21.96;52.55;99416.53;4928225;29;9002;-77
2023/07/07 03:04:01;;;;;;;;;12.40;11.60;;;;;21.97;52.37;99416.41;4927192;29;8882;-73
2023/07/07 03:06:30;;;;;;;;;8.20;7.80;;;;;21.98;52.24;99415.47;4929145;29;8879;-75
2023/07/07 03:09:00;;;;;;;;;12.80;11.80;;;;;22.00;52.25;99418.03;4916436;29;8913;-73
2023/07/07 03:11:30;;;;;;;;;11.00;10.40;;;;;22.01;52.42;99420.59;4926850;29;9604;-74
2023/07/07 03:13:58;;;;;;;;;15.00;12.00;;;;;21.88;52.72;99422.44;4912277;29;8891;-74
2023/07/07 03:16:32;;;;;;;;;13.60;12.00;;;;;21.92;52.93;99428.41;4912523;29;8856;-75
2023/07/07 03:19:06;;;;;;;;;16.60;13.00;;;;;21.99;52.69;99435.03;4911067;29;8871;-74
2023/07/07 03:21:42;;;;;;;;;17.80;16.80;;;;;22.06;52.24;99430.97;4891695;29;8879;-76
2023/07/07 03:24:28;;;;;;;;;29.00;28.00;;;;;22.12;52.17;99435.88;4876323;29;8913;-75
2023/07/07 03:26:59;;;;;;;;;16.00;15.00;;;;;22.15;52.51;99442.84;4891952;29;9039;-73
2023/07/07 03:29:33;;;;;;;;;14.60;13.00;;;;;22.22;51.98;99442.31;4876330;29;8891;-75
2023/07/07 03:32:02;;;;;;;;;15.20;14.00;;;;;22.25;52.15;99435.91;4876356;29;8909;-76
2023/07/07 03:34:36;;;;;;;;;14.40;14.40;;;;;22.24;52.17;99434.19;4875252;29;8917;-73
2023/07/07 03:37:10;;;;;;;;;14.60;14.20;;;;;22.27;52.28;99425.09;4876339;29;8874;-74
2023/07/07 03:39:40;;;;;;;;;12.40;12.20;;;;;22.22;52.36;99428.94;4876152;29;8933;-75
2023/07/07 03:42:09;;;;;;;;;16.00;15.00;;;;;21.42;54.85;99437.13;4876041;29;8881;-76
2023/07/07 03:44:38;;;;;;;;;13.20;13.20;;;;;21.68;54.29;99431.00;4876301;29;8919;-74
2023/07/07 03:47:07;;;;;;;;;18.60;16.80;;;;;21.74;54.14;99420.69;4876229;29;8855;-73
2023/07/07 03:49:37;;;;;;;;;21.00;19.00;;;;;21.63;54.28;99421.47;4844983;29;8883;-78
2023/07/07 03:52:07;;;;;;;;;40.50;35.00;;;;;21.64;54.60;99411.63;4896018;29;8871;-74
2023/07/07 03:54:37;;;;;;;;;17.00;17.00;;;;;21.63;54.56;99421.47;4927385;29;8863;-74
2023/07/07 03:57:10;;;;;;;;;15.20;15.20;;;;;21.41;55.64;99418.53;4895758;29;8978;-74
2023/07/07 03:59:39;;;;;;;;;19.40;19.40;;;;;21.40;55.28;99416.78;4913023;29;9589;-74
2023/07/07 04:02:09;;;;;;;;;24.60;23.80;;;;;21.12;56.49;99425.81;4913179;29;8987;-74
2023/07/07 04:04:37;;;;;;;;;18.40;17.40;;;;;21.17;56.19;99421.88;4916373;29;8920;-75
2023/07/07 04:07:07;;;;;;;;;18.00;17.20;;;;;21.19;56.35;99425.31;4912861;29;8899;-76
2023/07/07 04:09:35;;;;;;;;;17.00;16.60;;;;;21.10;56.37;99423.25;4927969;29;8879;-73
2023/07/07 04:12:10;;;;;;;;;18.80;17.00;;;;;21.22;56.11;99432.28;4912996;29;8886;-74
2023/07/07 04:14:39;;;;;;;;;30.40;28.60;;;;;21.23;55.96;99433.97;4926825;29;9685;-72
2023/07/07 04:17:08;;;;;;;;;21.20;20.60;;;;;21.42;55.64;99422.91;4923752;29;8862;-78
2023/07/07 04:19:37;;;;;;;;;19.60;17.00;;;;;21.44;55.55;99432.50;4892394;29;8862;-74
2023/07/07 04:22:06;;;;;;;;;36.25;32.50;;;;;21.50;55.38;99433.91;4906654;29;8902;-74
2023/07/07 04:24:34;;;;;;;;;31.00;29.00;;;;;21.63;54.89;99437.53;4909872;29;8855;-77
2023/07/07 04:27:04;;;;;;;;;18.00;16.60;;;;;21.70;55.01;99443.28;4926469;29;8882;-78
2023/07/07 04:29:33;;;;;;;;;27.00;24.20;;;;;21.76;54.54;99440.19;4912178;29;9006;-76
2023/07/07 04:32:03;;;;;;;;;24.00;22.80;;;;;21.70;54.79;99445.13;4911790;29;8913;-79
2023/07/07 04:34:31;;;;;;;;;18.00;16.80;;;;;21.36;55.98;99444.72;4912157;29;8875;-76
2023/07/07 04:37:00;;;;;;;;;19.60;18.20;;;;;21.32;56.04;99451.22;4911281;29;8863;-76
2023/07/07 04:39:29;;;;;;;;;19.40;18.20;;;;;21.40;55.76;99455.09;4911949;29;8883;-75
2023/07/07 04:41:58;;;;;;;;;23.80;21.80;;;;;21.30;56.04;99453.16;4929168;29;8991;-74
2023/07/07 04:44:27;;;;;;;;;21.20;20.60;;;;;21.40;55.27;99449.72;4913476;29;8883;-74
2023/07/07 04:46:57;;;;;;;;;22.40;22.40;;;;;21.43;54.94;99454.03;4912393;29;8875;-74
2023/07/07 04:49:26;;;;;;;;;21.00;21.00;;;;;21.23;55.13;99460.72;4893287;29;8917;-78
2023/07/07 04:51:55;;;;;;;;;19.00;18.00;;;;;21.32;54.78;99456.59;4911871;29;8867;-80
2023/07/07 04:54:24;;;;;;;;;26.60;23.60;;;;;21.05;55.58;99463.66;4911795;29;8882;-75
2023/07/07 04:56:53;;;;;;;;;23.80;17.80;;;;;20.67;56.05;99468.78;4910700;29;8910;-79
2023/07/07 04:59:22;;;;;;;;;22.00;22.00;;;;;20.68;56.27;99473.19;4911212;29;8954;-75
2023/07/07 05:01:50;;;;;;;;;19.40;18.00;;;;;21.12;53.94;99472.09;4925419;29;9099;-75
2023/07/07 05:04:20;;;;;;;;;24.00;20.80;;;;;21.39;53.13;99466.75;4911640;29;9016;-74
2023/07/07 05:06:50;;;;;;;;;19.20;19.00;;;;;21.53;52.61;99464.97;4911380;29;8878;-75
2023/07/07 05:09:19;;;;;;;;;23.80;23.40;;;;;21.11;53.29;99470.41;4913679;29;8985;-75
2023/07/07 05:11:48;;;;;;;;;21.00;21.00;;;;;21.25;52.53;99475.69;4926480;29;8868;-76
2023/07/07 05:14:16;;;;;;;;;20.40;19.40;;;;;21.30;51.96;99483.41;4910992;29;8901;-73
2023/07/07 05:16:45;;;;;;;;;19.60;18.80;;;;;21.56;51.22;99486.13;4911463;29;8883;-78
2023/07/07 05:19:14;;;;;;;;;21.80;21.60;;;;;21.69;50.03;99481.69;4910685;29;8895;-74
2023/07/07 05:21:44;;;;;;;;;22.80;20.00;;;;;21.18;51.14;99489.56;4925660;29;8890;-75
2023/07/07 05:24:13;;;;;;;;;20.00;19.20;;;;;21.45;50.20;99487.72;4908370;29;8978;-73
2023/07/07 05:26:42;;;;;;;;;17.00;16.60;;;;;21.49;49.95;99491.06;4910213;29;8993;-76
2023/07/07 05:29:13;;;;;;;;;20.00;17.60;;;;;21.78;49.19;99490.91;4911179;29;8879;-74
2023/07/07 05:31:42;;;;;;;;;18.00;17.60;;;;;21.98;48.28;99498.44;4893263;29;8899;-77
2023/07/07 05:34:11;;;;;;;;;20.40;20.20;;;;;22.10;47.76;99498.53;4911153;29;8895;-74
2023/07/07 05:36:40;;;;;;;;;21.00;19.80;;;;;22.22;47.83;99494.97;4910485;29;8899;-75
2023/07/07 05:39:10;;;;;;;;;23.00;19.60;;;;;21.70;49.13;99498.63;4913916;29;8863;-75
2023/07/07 05:41:39;;;;;;;;;19.20;17.80;;;;;22.26;48.19;99495.66;4914708;29;8879;-76
2023/07/07 05:44:08;;;;;;;;;21.80;19.40;;;;;22.60;47.43;99497.66;4929054;29;8934;-74
2023/07/07 05:46:37;;;;;;;;;20.20;18.40;;;;;22.95;46.96;99496.94;4915888;29;8886;-75
2023/07/07 05:49:06;;;;;;;;;18.80;18.20;;;;;23.30;45.80;99500.63;4914659;29;8875;-73
2023/07/07 05:51:35;;;;;;;;;18.00;17.00;;;;;23.56;45.16;99496.91;4912854;29;9006;-75
2023/07/07 05:54:04;;;;;;;;;24.00;20.80;;;;;22.96;45.43;99505.84;4914328;29;9029;-75
2023/07/07 05:56:34;;;;;;;;;19.40;19.40;;;;;22.07;48.13;99509.44;4914302;29;8882;-76
2023/07/07 05:59:03;;;;;;;;;15.40;15.40;;;;;22.71;47.35;99504.06;4915248;29;9709;-73
2023/07/07 06:01:33;;;;;;;;;20.20;19.00;;;;;22.78;47.17;99511.53;4914414;29;9697;-75
2023/07/07 06:04:02;;;;;;;;;21.40;20.20;;;;;22.81;46.95;99513.16;4914026;29;8983;-75
2023/07/07 06:06:31;;;;;;;;;42.50;36.75;;;;;22.23;48.79;99510.09;4913047;29;8879;-75
2023/07/07 06:09:00;;;;;;;;;25.20;24.20;;;;;21.56;50.47;99510.19;4914376;29;8855;-77
2023/07/07 06:11:29;;;;;;;;;25.80;22.80;;;;;21.83;50.18;99503.00;4913882;29;9729;-77
2023/07/07 06:13:59;;;;;;;;;22.20;20.40;;;;;21.92;49.58;99503.34;4896140;29;8895;-78
2023/07/07 06:16:28;;;;;;;;;25.60;24.40;;;;;21.74;49.66;99511.66;4927721;29;8875;-78
2023/07/07 06:18:57;;;;;;;;;23.60;21.80;;;;;22.18;48.86;99504.19;4914290;29;8880;-76
2023/07/07 06:21:25;;;;;;;;;23.20;21.80;;;;;22.72;48.38;99511.13;4910804;29;8883;-76
2023/07/07 06:23:54;;;;;;;;;20.60;19.00;;;;;23.14;47.42;99512.50;4913676;29;8879;-72
2023/07/07 06:26:24;;;;;;;;;23.20;22.80;;;;;23.43;45.58;99519.34;4913461;29;8917;-75
2023/07/07 06:28:52;;;;;;;;;22.20;20.00;;;;;22.90;47.17;99517.88;4913367;29;8867;-70
2023/07/07 06:31:23;;;;;;;;;22.00;22.00;;;;;23.18;46.64;99524.72;4913600;29;8977;-73
2023/07/07 06:33:52;;;;;;;;;21.40;19.80;;;;;23.01;47.52;99522.44;4913533;29;8879;-72
2023/07/07 06:36:21;;;;;;;;;22.00;21.80;;;;;23.02;47.01;99526.84;4913205;29;8875;-72
2023/07/07 06:38:49;;;;;;;;;21.40;20.40;;;;;22.77;48.06;99528.59;4912995;29;8913;-74
2023/07/07 06:41:22;;;;;;;;;23.60;22.60;;;;;23.17;47.55;99528.38;4900836;29;8891;-73
2023/07/07 06:43:51;;;;;;;;;22.80;22.00;;;;;22.36;49.33;99536.91;4927198;29;9685;-73
2023/07/07 06:46:25;;;;;;;;;22.00;21.00;;;;;21.85;50.58;99543.06;4912754;29;8848;-73
2023/07/07 06:48:56;;;;;;;;;21.80;21.40;;;;;21.63;51.78;99552.53;4912411;29;8913;-72
2023/07/07 06:51:26;;;;;;;;;22.60;21.60;;;;;21.11;53.63;99555.94;4911719;29;9638;-73
2023/07/07 06:53:55;;;;;;;;;22.80;22.80;;;;;21.03;54.26;99555.56;4912095;29;8962;-75
2023/07/07 06:56:24;;;;;;;;;17.40;17.40;;;;;21.17;53.78;99549.34;4910893;29;8867;-76
2023/07/07 06:58:53;;;;;;;;;23.20;22.00;;;;;21.34;52.79;99553.59;4907171;29;8975;-73
2023/07/07 07:01:22;;;;;;;;;20.60;19.40;;;;;20.96;53.77;99557.78;4912846;29;8902;-73
2023/07/07 07:03:52;;;;;;;;;25.60;23.80;;;;;21.00;54.22;99558.44;4913020;29;8883;-74
2023/07/07 07:06:21;;;;;;;;;22.60;21.20;;;;;21.63;52.15;99557.00;4912554;29;8872;-72
2023/07/07 07:08:50;;;;;;;;;19.80;19.00;;;;;21.82;51.59;99560.19;4912929;29;8883;-73
2023/07/07 07:11:19;;;;;;;;;24.40;21.60;;;;;21.32;52.86;99576.91;4913822;29;8851;-73
2023/07/07 07:13:48;;;;;;;;;23.60;23.00;;;;;21.72;51.83;99571.59;4911729;29;8891;-73
2023/07/07 07:16:17;;;;;;;;;27.20;24.40;;;;;22.12;50.66;99568.88;4912610;29;8867;-73
2023/07/07 07:18:46;;;;;;;;;23.80;23.00;;;;;21.97;50.47;99576.16;4912774;29;9005;-72
2023/07/07 07:21:16;;;;;;;;;19.80;19.40;;;;;21.73;51.21;99570.63;4912929;29;8883;-72
2023/07/07 07:23:45;;;;;;;;;18.00;17.80;;;;;22.33;50.02;99572.78;4927336;29;8890;-71
2023/07/07 07:26:14;;;;;;;;;24.60;23.40;;;;;22.63;48.45;99570.75;4895196;29;8891;-71
2023/07/07 07:28:42;;;;;;;;;24.60;22.60;;;;;23.00;47.79;99569.84;4912714;29;8970;-73
2023/07/07 07:31:12;;;;;;;;;23.40;20.40;;;;;23.22;47.11;99575.44;4912957;29;8867;-72
2023/07/07 07:33:41;;;;;;;;;22.60;21.20;;;;;23.31;47.09;99577.47;4911251;29;9601;-73
2023/07/07 07:36:10;;;;;;;;;27.60;23.20;;;;;23.36;47.02;99572.63;4913023;29;9482;-71
2023/07/07 07:38:40;;;;;;;;;24.80;24.80;;;;;23.16;47.55;99582.13;4912906;29;8883;-74
2023/07/07 07:41:09;;;;;;;;;20.80;20.80;;;;;22.55;49.07;99593.56;4912818;29;8891;-72
2023/07/07 07:43:37;;;;;;;;;18.40;18.00;;;;;22.33;50.20;99586.16;4912371;29;9020;-70
2023/07/07 07:46:06;;;;;;;;;23.80;23.20;;;;;22.94;48.96;99582.81;4910396;29;8871;-72
2023/07/07 07:48:35;;;;;;;;;23.80;23.80;;;;;22.78;49.48;99593.75;4912255;29;8986;-72
2023/07/07 07:51:04;;;;;;;;;25.40;23.80;;;;;22.16;51.15;99597.16;4911274;29;8859;-71
2023/07/07 07:53:54;;;;;;;;;23.60;23.00;;;;;22.89;49.43;99585.84;4912390;29;8965;-70
2023/07/07 07:56:23;;;;;;;;;23.00;23.00;;;;;23.18;48.55;99597.13;4928749;29;8866;-73
2023/07/07 07:58:52;;;;;;;;;21.00;20.60;;;;;22.56;50.90;99597.97;4928970;29;9004;-70
2023/07/07 08:01:21;;;;;;;;;20.80;18.60;;;;;22.46;51.61;99598.72;4912034;29;8988;-69
2023/07/07 08:03:50;;;;;;;;;21.40;21.40;;;;;22.39;51.40;99600.94;4928412;29;8949;-71
2023/07/07 08:06:19;;;;;;;;;22.60;22.40;;;;;22.50;51.49;99590.34;4927597;29;8896;-73
2023/07/07 08:08:47;;;;;;;;;19.60;19.60;;;;;22.11;52.40;99601.97;4928066;29;8862;-70
2023/07/07 08:11:20;;;;;;;;;23.40;23.40;;;;;22.16;52.02;99600.69;4928262;29;8850;-73
2023/07/07 08:13:48;;;;;;;;;24.20;24.20;;;;;22.01;52.66;99599.06;4928303;29;8885;-71
2023/07/07 08:16:18;;;;;;;;;26.80;25.60;;;;;21.93;53.22;99604.09;4928410;29;8936;-72
2023/07/07 08:18:47;;;;;;;;;25.00;23.60;;;;;22.11;52.08;99601.97;4928192;29;9013;-70
2023/07/07 08:21:16;;;;;;;;;27.20;26.40;;;;;22.86;50.06;99606.59;4927776;29;8894;-72
2023/07/07 08:23:44;;;;;;;;;21.20;21.20;;;;;23.13;49.65;99609.19;4926680;29;8870;-72
2023/07/07 08:26:13;;;;;;;;;27.80;26.00;;;;;22.82;51.25;99614.00;4927734;29;8874;-72
2023/07/07 08:28:47;;;;;;;;;22.00;21.80;;;;;23.06;50.82;99613.25;4911858;29;8879;-70
2023/07/07 08:31:18;;;;;;;;;26.60;25.80;;;;;23.16;50.33;99609.78;4911547;29;8855;-70
2023/07/07 08:33:48;;;;;;;;;21.40;19.80;;;;;22.87;50.56;99611.03;4911359;29;8994;-71
2023/07/07 08:36:27;;;;;;;;;21.40;21.40;;;;;22.97;50.39;99606.72;4911844;29;8863;-72
2023/07/07 08:39:01;;;;;;;;;24.60;22.60;;;;;23.69;48.61;99609.50;4911667;29;8879;-71
2023/07/07 08:41:30;;;;;;;;;23.20;19.80;;;;;24.05;47.71;99601.47;4908635;29;8913;-78
2023/07/07 08:43:59;;;;;;;;;22.20;21.40;;;;;23.52;49.43;99615.28;4909005;29;8871;-76
2023/07/07 08:46:45;;;;;;;;;24.60;23.60;;;;;23.92;48.54;99623.91;4910949;29;8891;-74
2023/07/07 08:49:21;;;;;;;;;27.40;25.20;;;;;24.26;46.91;99625.84;4911320;29;9664;-76
2023/07/07 08:51:59;;;;;;;;;23.00;22.80;;;;;23.61;48.88;99627.16;4910847;29;8922;-71
2023/07/07 08:54:33;;;;;;;;;27.40;27.00;;;;;22.97;50.61;99614.78;4911578;29;9737;-73
2023/07/07 08:57:10;;;;;;;;;15.20;14.40;;;;;23.32;47.78;99617.59;4911203;29;8863;-72
2023/07/07 08:59:53;;;;;;;;;15.00;15.00;;;;;23.84;44.41;99614.69;4925548;29;8897;-74
2023/07/07 09:02:40;;;;;;;;;12.40;11.80;;;;;24.02;44.21;99618.69;4913792;29;8873;-73
2023/07/07 09:05:28;;;;;;;;;14.80;14.80;;;;;24.69;42.48;99615.28;4910892;29;10057;-73
2023/07/07 09:08:07;;;;;;;;;14.60;13.40;;;;;24.77;42.49;99612.03;4911013;29;8840;-73
2023/07/07 09:10:46;;;;;;;;;12.60;11.60;;;;;25.10;41.21;99605.78;4910862;29;8990;-73
2023/07/07 09:13:27;;;;;;;;;11.40;11.20;;;;;24.51;42.91;99614.06;4914367;29;8887;-72
2023/07/07 09:16:04;;;;;;;;;18.40;17.80;;;;;23.90;45.29;99612.44;4913164;29;8911;-76
2023/07/07 09:18:38;;;;;;;;;17.60;17.40;;;;;23.92;44.81;99614.97;4908820;29;8878;-74
2023/07/07 09:21:22;;;;;;;;;14.80;14.20;;;;;23.82;44.19;99616.66;4915242;29;8891;-75
2023/07/07 09:23:57;;;;;;;;;14.80;14.20;;;;;23.42;45.04;99620.44;4914895;29;8867;-74
2023/07/07 09:26:30;;;;;;;;;14.60;14.60;;;;;24.11;43.95;99612.63;4896829;29;8895;-75
2023/07/07 09:29:04;;;;;;;;;13.20;13.00;;;;;24.58;44.17;99615.28;4912921;29;8875;-75
2023/07/07 09:31:42;;;;;;;;;15.20;14.20;;;;;24.40;43.05;99620.28;4903160;29;8864;-77
2023/07/07 09:34:14;;;;;;;;;16.40;15.60;;;;;24.61;43.73;99609.66;4912322;29;8978;-73
2023/07/07 09:36:51;;;;;;;;;14.60;14.60;;;;;24.66;43.22;99596.72;4885124;29;9605;-75
2023/07/07 09:39:34;;;;;;;;;13.40;13.40;;;;;24.42;43.82;99599.50;4902989;29;8875;-70
2023/07/07 09:42:15;;;;;;;;;18.60;18.40;;;;;24.39;44.55;99597.06;4914527;29;8851;-71
2023/07/07 09:44:56;;;;;;;;;17.20;17.00;;;;;25.38;43.23;99597.31;4913098;29;9656;-69
2023/07/07 09:47:34;;;;;;;;;20.80;19.20;;;;;24.19;45.54;99613.84;4914939;29;8884;-73
2023/07/07 09:50:10;;;;;;;;;20.40;20.00;;;;;24.25;45.55;99599.97;4914282;29;8867;-70
2023/07/07 09:52:45;;;;;;;;;16.00;16.00;;;;;24.65;44.04;99595.00;4913599;29;8921;-71
2023/07/07 09:55:20;;;;;;;;;15.00;14.60;;;;;24.46;41.83;99600.13;4895482;29;9042;-70
2023/07/07 09:57:59;;;;;;;;;11.60;11.60;;;;;24.35;43.32;99590.22;4895746;29;8881;-69
2023/07/07 10:00:31;;;;;;;;;13.00;13.00;;;;;23.55;44.03;99598.97;4895593;29;8888;-69
2023/07/07 10:03:24;;;;;;;;;14.00;14.00;;;;;23.80;44.59;99600.66;4895574;29;8882;-67
2023/07/07 10:05:55;;;;;;;;;16.00;15.20;;;;;23.92;44.96;99596.19;4896022;29;8953;-68
2023/07/07 10:08:27;;;;;;;;;16.20;16.20;;;;;24.30;44.65;99584.34;4901064;29;8883;-70
2023/07/07 10:11:09;;;;;;;;;16.80;16.80;;;;;25.05;43.21;99582.91;4913200;29;8881;-71
2023/07/07 10:13:58;;;;;;;;;15.00;14.20;;;;;25.22;42.20;99581.53;4900688;29;8879;-81
2023/07/07 10:16:40;;;;;;;;;14.20;14.20;;;;;25.84;41.50;99580.00;4914600;29;8863;-80
2023/07/07 10:19:12;;;;;;;;;17.60;17.20;;;;;26.28;40.34;99578.91;4914399;29;8872;-79
2023/07/07 10:21:43;;;;;;;;;17.80;17.00;;;;;26.65;40.58;99572.19;4911997;29;9074;-83
2023/07/07 10:24:14;;;;;;;;;19.20;18.00;;;;;26.83;39.37;99573.28;4911968;29;8859;-78
2023/07/07 10:26:47;;;;;;;;;19.20;19.20;;;;;26.66;40.04;99573.88;4913009;29;8859;-77
2023/07/07 10:29:21;;;;;;;;;18.00;16.80;;;;;26.80;39.44;99586.16;4921290;29;8891;-80
2023/07/07 10:31:51;;;;;;;;;19.00;17.00;;;;;26.86;39.14;99567.59;4894933;29;8868;-80
2023/07/07 10:34:30;;;;;;;;;18.60;18.40;;;;;26.34;39.77;99582.91;4914149;29;8905;-77
2023/07/07 10:37:00;;;;;;;;;16.80;16.60;;;;;26.20;40.22;99567.09;4914753;29;8875;-78
2023/07/07 10:39:31;;;;;;;;;16.20;16.20;;;;;25.88;40.03;99568.00;4911645;29;8887;-77
2023/07/07 10:42:00;;;;;;;;;17.80;17.80;;;;;25.17;42.69;99564.91;4913228;29;8852;-79
2023/07/07 10:44:29;;;;;;;;;21.00;19.80;;;;;23.89;46.15;99585.69;4912363;29;8879;-77
2023/07/07 10:46:57;;;;;;;;;14.40;12.80;;;;;23.24;47.98;99578.88;4928215;29;9688;-79
2023/07/07 10:49:28;;;;;;;;;18.20;17.20;;;;;23.19;48.80;99581.91;4913603;29;9645;-78
2023/07/07 10:52:23;;;;;;;;;16.80;16.00;;;;;22.99;49.31;99577.97;4914112;29;8875;-79
2023/07/07 10:55:22;;;;;;;;;18.20;18.00;;;;;22.88;49.28;99577.88;4928101;29;8899;-76
2023/07/07 10:58:03;;;;;;;;;14.00;14.00;;;;;22.83;49.41;99580.91;4912857;29;8867;-80
2023/07/07 11:00:46;;;;;;;;;17.60;17.60;;;;;22.68;50.08;99588.19;4914056;29;8879;-79
2023/07/07 11:03:40;;;;;;;;;16.00;15.80;;;;;22.71;49.12;99573.72;4916567;29;8974;-78
2023/07/07 11:06:21;;;;;;;;;22.40;21.40;;;;;22.81;49.42;99567.59;4915145;29;8917;-78
2023/07/07 11:09:00;;;;;;;;;18.20;17.80;;;;;23.09;48.07;99570.13;4913601;29;8879;-82
2023/07/07 11:11:35;;;;;;;;;17.40;16.00;;;;;22.77;48.99;99563.44;4911797;29;8871;-77
2023/07/07 11:14:24;;;;;;;;;17.80;17.00;;;;;22.63;49.32;99568.91;4903662;29;8879;-77
2023/07/07 11:17:10;;;;;;;;;18.40;17.60;;;;;22.59;49.81;99570.09;4911827;29;8931;-76
2023/07/07 11:19:59;;;;;;;;;19.20;18.00;;;;;22.72;49.88;99572.75;4903942;29;8903;-79
2023/07/07 11:22:57;;;;;;;;;25.60;22.40;;;;;23.18;50.08;99577.50;4911454;29;8982;-78
2023/07/07 11:25:39;;;;;;;;;27.80;25.80;;;;;23.13;51.77;99579.69;4901179;29;8981;-78
2023/07/07 11:28:21;;;;;;;;;26.20;25.20;;;;;23.02;52.42;99580.47;4907946;29;9045;-76
2023/07/07 11:31:05;;;;;;;;;22.20;20.60;;;;;23.59;51.11;99584.34;4912143;29;8895;-77
2023/07/07 11:33:44;;;;;;;;;18.00;17.20;;;;;23.94;50.50;99584.38;4909775;29;8890;-78
2023/07/07 11:36:48;;;;;;;;;22.20;19.00;;;;;24.04;50.87;99579.13;4913434;29;8867;-79
2023/07/07 11:39:32;;;;;;;;;20.20;19.60;;;;;24.41;49.75;99567.38;4909694;29;8882;-78
2023/07/07 11:42:20;;;;;;;;;16.80;16.80;;;;;24.63;49.62;99558.50;4893937;29;8874;-81
2023/07/07 11:45:01;;;;;;;;;20.20;18.00;;;;;24.62;49.03;99556.75;4893908;29;8962;-81
2023/07/07 11:47:45;;;;;;;;;20.00;20.00;;;;;24.96;48.67;99554.94;4893999;29;8952;-77
2023/07/07 11:50:24;;;;;;;;;19.20;19.20;;;;;25.16;47.54;99553.31;4905128;29;8867;-78
2023/07/07 11:53:22;;;;;;;;;22.60;19.00;;;;;25.29;47.70;99561.22;4927169;29;8855;-82